createdAt,value
2023-03-23T00:02:03.204Z,100345.00
2023-03-23T00:04:35.636Z,100349.22
2023-03-23T00:07:07.754Z,100318.72
2023-03-23T00:09:42.179Z,100303.06
2023-03-23T00:12:16.729Z,100298.75
2023-03-23T00:14:49.434Z,100320.63
2023-03-23T00:17:24.591Z,100309.34
2023-03-23T00:19:57.544Z,100322.28
2023-03-23T00:22:30.344Z,100324.03
2023-03-23T00:25:03.209Z,100319.59
2023-03-23T00:27:35.662Z,100321.16
2023-03-23T00:30:08.849Z,100320.44
2023-03-23T00:32:41.315Z,100310.88
2023-03-23T00:35:13.368Z,100300.44
2023-03-23T00:37:45.542Z,100303.94
2023-03-23T00:40:18.346Z,100288.22
2023-03-23T00:42:50.637Z,100284.75
2023-03-23T00:45:22.982Z,100290.94
2023-03-23T00:47:55.131Z,100289.94
2023-03-23T00:50:33.758Z,100282.06
2023-03-23T00:53:10.807Z,100281.16
2023-03-23T00:55:44.709Z,100281.19
2023-03-23T00:58:17.500Z,100275.88
2023-03-23T01:00:49.636Z,100275.94
2023-03-23T01:03:22.143Z,100272.47
2023-03-23T01:05:56.822Z,100262.03
2023-03-23T01:08:29.494Z,100259.34
2023-03-23T01:11:07.808Z,100255.91
2023-03-23T01:13:41.459Z,100250.66
2023-03-23T01:16:14.846Z,100248.81
2023-03-23T01:18:47.142Z,100243.63
2023-03-23T01:21:21.879Z,100250.53
2023-03-23T01:23:54.478Z,100242.69
2023-03-23T01:26:28.617Z,100249.84
2023-03-23T01:29:01.415Z,100250.66
2023-03-23T01:31:35.897Z,100265.41
2023-03-23T01:34:09.364Z,100253.22
2023-03-23T01:36:42.038Z,100253.19
2023-03-23T01:39:14.559Z,100248.72
2023-03-23T01:41:47.727Z,100240.97
2023-03-23T01:44:19.784Z,100236.75
2023-03-23T01:46:52.149Z,100234.19
2023-03-23T01:49:39.374Z,100224.59
2023-03-23T01:52:24.898Z,100236.81
2023-03-23T01:54:59.310Z,100227.22
2023-03-23T01:57:32.589Z,100228.88
2023-03-23T02:00:15.658Z,100235.75
2023-03-23T02:02:51.413Z,100234.97
2023-03-23T02:05:36.431Z,100241.88
2023-03-23T02:08:11.929Z,100231.31
2023-03-23T02:10:44.162Z,100220.81
2023-03-23T02:13:24.004Z,100220.00
2023-03-23T02:16:34.681Z,100207.69
2023-03-23T02:19:39.001Z,100206.91
2023-03-23T02:22:29.299Z,100193.97
2023-03-23T02:25:41.485Z,100192.09
2023-03-23T02:28:48.784Z,100178.09
2023-03-23T02:31:49.062Z,100165.09
2023-03-23T02:34:46.317Z,100171.09
2023-03-23T02:37:29.026Z,100174.38
2023-03-23T02:40:13.764Z,100185.00
2023-03-23T02:42:51.262Z,100179.75
2023-03-23T02:45:25.482Z,100189.09
2023-03-23T02:47:58.786Z,100178.56
2023-03-23T02:50:32.859Z,100166.34
2023-03-23T02:53:11.518Z,100145.63
2023-03-23T02:55:45.973Z,100146.41
2023-03-23T02:58:18.181Z,100136.75
2023-03-23T03:00:51.999Z,100124.66
2023-03-23T03:03:29.846Z,100138.56
2023-03-23T03:06:30.926Z,100150.69
2023-03-23T03:09:36.813Z,100135.16
2023-03-23T03:12:36.372Z,100126.44
2023-03-23T03:15:33.934Z,100112.63
2023-03-23T03:18:26.402Z,100117.81
2023-03-23T03:21:07.206Z,100105.59
2023-03-23T03:23:44.533Z,100106.47
2023-03-23T03:26:18.409Z,100111.66
2023-03-23T03:28:50.955Z,100115.91
2023-03-23T03:31:33.987Z,100098.59
2023-03-23T03:34:07.609Z,100127.13
2023-03-23T03:36:42.394Z,100114.00
2023-03-23T03:39:18.403Z,100098.28
2023-03-23T03:41:50.596Z,100103.38
2023-03-23T03:44:23.298Z,100112.16
2023-03-23T03:46:55.687Z,100110.31
2023-03-23T03:49:28.178Z,100111.31
2023-03-23T03:52:00.440Z,100112.28
2023-03-23T03:54:32.553Z,100108.91
2023-03-23T03:57:04.841Z,100127.00
2023-03-23T03:59:37.091Z,100114.00
2023-03-23T04:02:09.700Z,100117.59
2023-03-23T04:04:42.803Z,100123.66
2023-03-23T04:07:17.372Z,100122.69
2023-03-23T04:09:50.491Z,100122.50
2023-03-23T04:12:22.838Z,100111.19
2023-03-23T04:14:55.036Z,100109.53
2023-03-23T04:17:38.956Z,100123.38
2023-03-23T04:20:18.925Z,100104.19
2023-03-23T04:23:04.590Z,100107.78
2023-03-23T04:25:37.033Z,100110.31
2023-03-23T04:28:11.460Z,100097.16
2023-03-23T04:30:44.809Z,100104.38
2023-03-23T04:33:17.184Z,100111.13
2023-03-23T04:35:57.792Z,100107.78
2023-03-23T04:38:33.812Z,100111.25
2023-03-23T04:41:19.678Z,100111.38
2023-03-23T04:43:54.490Z,100108.53
2023-03-23T04:46:30.062Z,100110.31
2023-03-23T04:49:03.187Z,100104.03
2023-03-23T04:51:37.292Z,100104.25
2023-03-23T04:54:09.791Z,100101.72
2023-03-23T04:56:42.540Z,100088.44
2023-03-23T04:59:18.576Z,100103.19
2023-03-23T05:01:51.922Z,100108.47
2023-03-23T05:04:44.123Z,100104.88
2023-03-23T05:07:17.117Z,100104.88
2023-03-23T05:09:50.349Z,100101.41
2023-03-23T05:12:22.703Z,100098.81
2023-03-23T05:14:54.981Z,100096.22
2023-03-23T05:17:27.840Z,100105.75
2023-03-23T05:20:00.462Z,100093.53
2023-03-23T05:22:35.254Z,100113.50
2023-03-23T05:25:12.102Z,100103.84
2023-03-23T05:27:44.568Z,100098.72
2023-03-23T05:30:18.082Z,100087.34
2023-03-23T05:32:53.406Z,100089.88
2023-03-23T05:35:25.647Z,100092.47
2023-03-23T05:37:58.229Z,100087.44
2023-03-23T05:40:34.386Z,100074.31
2023-03-23T05:43:06.611Z,100081.31
2023-03-23T05:45:38.775Z,100068.47
2023-03-23T05:48:10.951Z,100076.28
2023-03-23T05:50:43.105Z,100083.22
2023-03-23T05:53:15.253Z,100073.50
2023-03-23T05:55:48.159Z,100084.78
2023-03-23T05:58:20.576Z,100088.19
2023-03-23T06:00:52.774Z,100100.53
2023-03-23T06:03:30.918Z,100097.88
2023-03-23T06:06:04.698Z,100106.34
2023-03-23T06:08:39.313Z,100094.09
2023-03-23T06:11:11.748Z,100101.09
2023-03-23T06:13:44.216Z,100095.56
2023-03-23T06:16:16.939Z,100093.97
2023-03-23T06:18:49.662Z,100092.19
2023-03-23T06:21:23.096Z,100096.50
2023-03-23T06:23:55.261Z,100101.72
2023-03-23T06:26:33.812Z,100098.84
2023-03-23T06:29:12.195Z,100099.09
2023-03-23T06:32:01.992Z,100107.38
2023-03-23T06:34:34.320Z,100112.63
2023-03-23T06:37:06.746Z,100117.56
2023-03-23T06:39:39.572Z,100118.34
2023-03-23T06:42:13.174Z,100116.59
2023-03-23T06:44:45.431Z,100115.72
2023-03-23T06:47:21.270Z,100126.91
2023-03-23T06:49:53.611Z,100127.72
2023-03-23T06:52:26.916Z,100121.66
2023-03-23T06:54:59.041Z,100122.44
2023-03-23T06:57:31.187Z,100123.91
2023-03-23T07:00:06.531Z,100119.63
2023-03-23T07:02:43.264Z,100128.56
2023-03-23T07:05:15.574Z,100133.16
2023-03-23T07:07:47.705Z,100134.06
2023-03-23T07:10:20.513Z,100126.00
2023-03-23T07:12:53.540Z,100144.91
2023-03-23T07:15:25.591Z,100136.53
2023-03-23T07:17:57.976Z,100152.28
2023-03-23T07:20:31.171Z,100153.66
2023-03-23T07:23:06.333Z,100142.09
2023-03-23T07:25:46.829Z,100145.75
2023-03-23T07:28:19.887Z,100142.38
2023-03-23T07:30:54.301Z,100159.03
2023-03-23T10:58:44.965Z,100313.94
2023-03-23T11:02:05.665Z,100321.78
2023-03-23T11:17:29.620Z,100321.28
2023-03-23T11:44:16.961Z,100354.00
2023-03-23T11:59:52.905Z,100365.59
2023-03-23T12:11:43.709Z,100343.22
2023-03-23T12:14:36.564Z,100346.19
2023-03-23T12:17:40.612Z,100344.88
2023-03-23T12:23:46.325Z,100329.09
2023-03-23T12:30:32.103Z,100343.59
2023-03-23T12:33:47.899Z,100332.63
2023-03-23T12:36:38.540Z,100339.56
2023-03-23T12:40:24.919Z,100350.66
2023-03-23T12:46:36.612Z,100329.75
2023-03-23T12:49:17.598Z,100331.47
2023-03-23T12:52:43.973Z,100337.63
2023-03-23T12:55:25.112Z,100334.41
2023-03-23T12:58:28.309Z,100326.66
2023-03-23T13:01:23.015Z,100333.72
2023-03-23T13:04:28.637Z,100326.81
2023-03-23T13:07:04.497Z,100328.72
2023-03-23T13:10:05.399Z,100328.63
2023-03-23T13:12:44.647Z,100322.91
2023-03-23T13:15:51.146Z,100320.91
2023-03-23T13:18:41.440Z,100319.38
2023-03-23T13:21:35.928Z,100332.50
2023-03-23T13:24:19.255Z,100331.47
2023-03-23T13:26:52.156Z,100327.28
2023-03-23T13:29:28.942Z,100329.09
2023-03-23T13:32:49.930Z,100338.03
2023-03-23T13:35:26.884Z,100343.06
2023-03-23T13:37:59.698Z,100347.34
2023-03-23T13:40:33.258Z,100366.59
2023-03-23T13:43:06.563Z,100362.38
2023-03-23T13:45:48.045Z,100368.66
2023-03-23T13:48:25.473Z,100384.69
2023-03-23T13:51:02.781Z,100399.75
2023-03-23T13:53:49.361Z,100390.03
2023-03-23T13:56:42.709Z,100397.34
2023-03-23T13:59:32.680Z,100385.50
2023-03-23T14:02:40.322Z,100359.47
2023-03-23T14:05:44.476Z,100389.19
2023-03-23T14:08:29.989Z,100386.00
2023-03-23T14:11:25.302Z,100384.34
2023-03-23T14:14:16.904Z,100387.81
2023-03-23T14:16:55.781Z,100366.84
2023-03-23T14:19:30.819Z,100359.88
2023-03-23T14:22:03.790Z,100353.56
2023-03-23T14:24:41.956Z,100339.53
2023-03-23T14:27:25.009Z,100341.94
2023-03-23T14:30:09.712Z,100340.50
2023-03-23T14:32:42.703Z,100340.47
2023-03-23T14:35:35.455Z,100347.22
2023-03-23T14:38:19.572Z,100325.91
2023-03-23T14:40:52.125Z,100338.03
2023-03-23T14:43:25.691Z,100339.53
2023-03-23T14:46:02.737Z,100342.03
2023-03-23T14:48:36.291Z,100351.13
2023-03-23T14:51:19.465Z,100353.31
2023-03-23T14:53:55.299Z,100352.94
2023-03-23T14:56:37.817Z,100363.88
2023-03-23T14:59:12.264Z,100353.72
2023-03-23T15:01:47.192Z,100359.66
2023-03-23T15:04:23.751Z,100363.69
2023-03-23T15:07:05.651Z,100356.69
2023-03-23T15:09:58.237Z,100353.91
2023-03-23T15:12:32.474Z,100353.81
2023-03-23T15:15:09.001Z,100356.03
2023-03-23T15:17:41.233Z,100362.19
2023-03-23T15:20:49.981Z,100365.47
2023-03-23T15:23:30.657Z,100361.84
2023-03-23T15:26:09.155Z,100362.22
2023-03-23T15:28:42.241Z,100359.97
2023-03-23T15:31:14.502Z,100365.66
2023-03-23T15:33:46.902Z,100371.28
2023-03-23T15:36:19.643Z,100367.97
2023-03-23T15:38:51.893Z,100361.72
2023-03-23T15:41:31.928Z,100365.28
2023-03-23T15:44:32.241Z,100367.88
2023-03-23T15:47:18.454Z,100380.97
2023-03-23T15:50:25.793Z,100382.84
2023-03-23T15:52:58.020Z,100407.47
2023-03-23T15:55:38.224Z,100396.91
2023-03-23T15:58:13.446Z,100384.84
2023-03-23T16:00:47.912Z,100394.22
2023-03-23T16:03:27.942Z,100381.00
2023-03-23T16:06:03.395Z,100367.66
2023-03-23T16:08:41.268Z,100359.06
2023-03-23T16:11:31.547Z,100346.75
2023-03-23T16:14:03.835Z,100346.13
2023-03-23T16:16:43.574Z,100346.44
2023-03-23T16:19:16.932Z,100344.06
2023-03-23T16:21:49.090Z,100338.94
2023-03-23T16:24:21.252Z,100348.66
2023-03-23T16:26:53.650Z,100360.34
2023-03-23T16:29:43.403Z,100362.16
2023-03-23T16:32:17.906Z,100364.06
2023-03-23T16:34:50.500Z,100367.56
2023-03-23T16:37:22.635Z,100370.97
2023-03-23T16:39:54.758Z,100384.91
2023-03-23T16:42:27.036Z,100374.38
2023-03-23T16:44:59.244Z,100380.59
2023-03-23T16:47:31.426Z,100377.22
2023-03-23T16:50:07.009Z,100386.88
2023-03-23T16:52:46.381Z,100373.91
2023-03-23T16:55:18.884Z,100371.38
2023-03-23T16:57:51.097Z,100367.88
2023-03-23T17:00:23.869Z,100374.63
2023-03-23T17:02:57.658Z,100373.78
2023-03-23T17:05:30.196Z,100372.97
2023-03-23T17:08:02.529Z,100380.00
2023-03-23T17:10:38.248Z,100392.25
2023-03-23T17:13:11.244Z,100402.03
2023-03-23T17:15:46.921Z,100395.03
2023-03-23T17:18:19.687Z,100400.31
2023-03-23T17:20:54.359Z,100411.53
2023-03-23T17:23:26.841Z,100412.72
2023-03-23T17:25:59.003Z,100405.84
2023-03-23T17:28:31.218Z,100417.41
2023-03-23T17:31:03.848Z,100418.38
2023-03-23T17:33:35.945Z,100405.47
2023-03-23T17:36:09.081Z,100408.03
2023-03-23T17:38:41.362Z,100406.31
2023-03-23T17:41:13.552Z,100416.72
2023-03-23T17:43:45.698Z,100420.16
2023-03-23T17:46:18.481Z,100426.16
2023-03-23T17:48:51.951Z,100434.25
2023-03-23T17:51:24.212Z,100437.84
2023-03-23T17:53:56.352Z,100440.13
2023-03-23T17:56:28.748Z,100440.09
2023-03-23T17:59:00.846Z,100446.06
2023-03-23T18:01:33.201Z,100447.94
2023-03-23T18:04:06.330Z,100460.13
2023-03-23T18:06:38.504Z,100455.78
2023-03-23T18:09:11.089Z,100454.09
2023-03-23T18:11:43.210Z,100443.56
2023-03-23T18:14:15.574Z,100439.22
2023-03-23T18:16:48.522Z,100428.72
2023-03-23T18:19:20.732Z,100422.59
2023-03-23T18:21:52.851Z,100428.75
2023-03-23T18:24:25.053Z,100431.41
2023-03-23T18:26:57.339Z,100426.88
2023-03-23T18:29:29.530Z,100424.41
2023-03-23T18:32:01.648Z,100414.84
2023-03-23T18:34:34.600Z,100425.38
2023-03-23T18:37:06.805Z,100428.13
2023-03-23T18:39:39.460Z,100428.97
2023-03-23T18:42:11.741Z,100429.97
2023-03-23T18:44:43.953Z,100439.66
2023-03-23T18:47:16.272Z,100434.34
2023-03-23T18:49:52.088Z,100434.47
2023-03-23T18:52:26.825Z,100431.81
2023-03-23T18:54:59.558Z,100436.41
2023-03-23T18:57:31.821Z,100435.56
2023-03-23T19:00:05.002Z,100439.91
2023-03-23T19:02:39.610Z,100440.75
2023-03-23T19:05:12.336Z,100439.06
2023-03-23T19:07:44.537Z,100439.00
2023-03-23T19:10:17.454Z,100432.91
2023-03-23T19:12:50.634Z,100428.59
2023-03-23T19:15:24.707Z,100423.31
2023-03-23T19:17:56.968Z,100433.16
2023-03-23T19:20:47.242Z,100425.53
2023-03-23T19:23:23.226Z,100421.22
2023-03-23T19:25:55.470Z,100424.81
2023-03-23T19:31:02.851Z,100405.47
2023-03-23T19:33:35.045Z,100407.28
2023-03-23T19:36:11.681Z,100399.53
2023-03-23T19:38:45.661Z,100400.53
2023-03-23T19:41:19.262Z,100400.44
2023-03-23T19:43:51.864Z,100394.34
2023-03-23T19:46:25.981Z,100397.91
2023-03-23T19:49:00.142Z,100406.72
2023-03-23T19:51:32.279Z,100403.31
2023-03-23T19:54:07.343Z,100405.00
2023-03-23T19:56:39.767Z,100397.06
2023-03-23T19:59:15.007Z,100381.41
2023-03-23T20:01:47.600Z,100377.84
2023-03-23T20:04:21.584Z,100376.97
2023-03-23T20:06:57.079Z,100374.47
2023-03-23T20:09:30.702Z,100371.88
2023-03-23T20:12:05.068Z,100380.56
2023-03-23T20:14:38.426Z,100383.16
2023-03-23T20:17:11.976Z,100384.84
2023-03-23T20:19:44.569Z,100385.69
2023-03-23T20:22:17.856Z,100379.53
2023-03-23T20:24:50.054Z,100380.47
2023-03-23T20:27:22.202Z,100379.59
2023-03-23T20:29:57.005Z,100377.69
2023-03-23T20:32:33.284Z,100373.22
2023-03-23T20:35:09.524Z,100374.97
2023-03-23T20:37:42.361Z,100374.94
2023-03-23T20:40:15.293Z,100369.72
2023-03-23T20:42:49.275Z,100370.56
2023-03-23T20:45:21.529Z,100368.09
2023-03-23T20:47:54.003Z,100371.50
2023-03-23T20:50:26.278Z,100363.75
2023-03-23T20:52:58.461Z,100357.63
2023-03-23T20:55:30.647Z,100347.34
2023-03-23T20:58:05.695Z,100348.16
2023-03-23T21:00:41.248Z,100349.81
2023-03-23T21:03:16.234Z,100348.91
2023-03-23T21:05:48.349Z,100340.09
2023-03-23T21:08:20.502Z,100342.00
2023-03-23T21:10:52.681Z,100331.50
2023-03-23T21:13:25.177Z,100329.88
2023-03-23T21:15:57.453Z,100339.38
2023-03-23T21:18:30.195Z,100327.13
2023-03-23T21:21:04.496Z,100317.47
2023-03-23T21:23:38.509Z,100317.44
2023-03-23T21:26:12.196Z,100316.56
2023-03-23T21:28:45.611Z,100317.50
2023-03-23T21:31:18.517Z,100298.28
2023-03-23T21:33:50.904Z,100307.91
2023-03-23T21:36:24.883Z,100302.78
2023-03-23T21:38:57.393Z,100297.56
2023-03-23T21:41:41.705Z,100294.06
2023-03-23T21:44:15.515Z,100294.09
2023-03-23T21:46:47.649Z,100285.44
2023-03-23T21:49:19.939Z,100278.56
2023-03-23T21:51:52.132Z,100271.53
2023-03-23T21:54:24.249Z,100268.00
2023-03-23T21:56:58.887Z,100262.69
2023-03-23T21:59:31.325Z,100257.41
2023-03-23T22:02:03.594Z,100252.97
2023-03-23T22:04:35.873Z,100248.69
2023-03-23T22:07:08.292Z,100248.56
2023-03-23T22:09:45.122Z,100244.97
2023-03-23T22:12:18.108Z,100243.28
2023-03-23T22:14:50.529Z,100248.56
2023-03-23T22:17:22.760Z,100234.44
2023-03-23T22:19:54.968Z,100234.38
2023-03-23T22:22:27.580Z,100230.78
2023-03-23T22:24:59.724Z,100221.94
2023-03-23T22:27:32.294Z,100217.47
2023-03-23T22:30:05.430Z,100218.59
2023-03-23T22:32:38.243Z,100214.91
2023-03-23T22:35:12.727Z,100206.97
2023-03-23T22:37:45.037Z,100200.09
2023-03-23T22:40:18.284Z,100194.94
2023-03-23T22:42:54.098Z,100195.94
2023-03-23T22:45:28.043Z,100191.34
2023-03-23T22:48:00.419Z,100190.69
2023-03-23T22:50:32.573Z,100179.22
2023-03-23T22:53:04.986Z,100179.41
2023-03-23T22:55:42.075Z,100177.63
2023-03-23T22:58:16.184Z,100171.56
2023-03-23T23:00:55.167Z,100169.44
2023-03-23T23:03:28.352Z,100174.66
2023-03-23T23:06:01.780Z,100164.34
2023-03-23T23:08:34.503Z,100159.16
2023-03-23T23:11:07.642Z,100166.28
2023-03-23T23:13:41.497Z,100159.38
2023-03-23T23:16:17.439Z,100155.13
2023-03-23T23:18:49.988Z,100146.53
2023-03-23T23:21:26.191Z,100146.47
2023-03-23T23:23:58.398Z,100137.78
2023-03-23T23:26:31.027Z,100136.19
2023-03-23T23:29:04.574Z,100132.78
2023-03-23T23:31:36.949Z,100137.16
2023-03-23T23:34:14.249Z,100124.19
2023-03-23T23:36:46.826Z,100120.94
2023-03-23T23:39:19.124Z,100121.78
2023-03-23T23:41:51.522Z,100121.81
2023-03-23T23:44:23.767Z,100111.41
2023-03-23T23:46:57.665Z,100118.47
2023-03-23T23:49:30.016Z,100108.00
2023-03-23T23:52:02.464Z,100114.19
2023-03-23T23:54:37.699Z,100109.00
2023-03-23T23:57:10.005Z,100105.59
2023-03-23T23:59:42.476Z,100101.22
